Perth, Canada
Current Conditions -  °F | °C
As of 6:21 AM on Thursday 18 Dec 2014 (Local Time) from CYOW Reporting Station
Light Snow Light Snow  
Wind Chill: 19°   Ceiling: 1400
Heat Index: 30°   Visibility: 8mi
Dew Point: 28°   Wind: 16mph
Humidity: 93%   Direction: 280°W
Pressure: 29.87"   Gusts: NA
Location:  44.88°N, 76.23°W
Report Text: CYOW 181121Z 28014KT 8SM -SN FEW006 OVC014 M01/M02 A2987 RMK SC2SC6 SLP121
Loading
Personal Weather Stations






























Interactive Weather Map New forecast layout! Learn more

10-Day Weather Forecast

Advertisements
Track Severe Weather on mobile